Time;durP1;ratioP1;P1;durP2;ratioP2;P2;SDS_P1;SDS_P2;PMS_P1;PMS_P2;Temp;Humidity;BMP_temperature;BMP_pressure;BME280_temperature;BME280_humidity;BME280_pressure;Samples;Min_cycle;Max_cycle;Signal;HPM_P1;HPM_P2
2023/01/23 00:02:33;;;;;;;;;;;;;;;0.68;89.69;102809.52;104973;1290;60926;-70
2023/01/23 00:05:19;;;;;;;;;;;;;;;0.66;89.65;102808.58;104877;1291;59414;-70
2023/01/23 00:08:05;;;;;;;;;;;;;;;0.65;89.66;102812.05;105052;1292;73170;-70
2023/01/23 00:10:52;;;;;;;;;;;;;;;0.64;89.67;102813.55;104905;1290;67264;-70
2023/01/23 00:13:38;;;;;;;;;;;;;;;0.64;89.62;102815.58;105054;1290;72769;-70
2023/01/23 00:16:26;;;;;;;;;;;;;;;0.63;89.68;102815.84;105049;1289;61235;-70
2023/01/23 00:19:12;;;;;;;;;;;;;;;0.62;89.67;102818.86;105035;1290;61284;-70
2023/01/23 00:21:59;;;;;;;;;;;;;;;0.62;89.71;102826.14;104812;1291;74037;-70
2023/01/23 00:24:45;;;;;;;;;;;;;;;0.63;89.74;102832.45;104932;1293;67399;-70
2023/01/23 00:27:32;;;;;;;;;;;;;;;0.63;89.65;102832.64;104843;1290;73945;-70
2023/01/23 00:30:18;;;;;;;;;;;;;;;0.62;89.64;102831.73;105027;1290;61154;-70
2023/01/23 00:33:04;;;;;;;;;;;;;;;0.60;89.64;102834.86;105021;1290;61068;-70
2023/01/23 00:35:53;;;;;;;;;;;;;;;0.59;89.68;102836.31;104907;1290;73517;-70
2023/01/23 00:38:39;;;;;;;;;;;;;;;0.60;89.70;102841.78;104983;1289;66614;-70
2023/01/23 00:41:25;;;;;;;;;;;;;;;0.59;89.68;102845.16;104936;1289;71742;-70
2023/01/23 00:44:12;;;;;;;;;;;;;;;0.59;89.70;102847.54;104904;1290;61232;-70
2023/01/23 00:46:58;;;;;;;;;;;;;;;0.59;89.69;102851.41;105039;1290;61164;-70
2023/01/23 00:49:44;;;;;;;;;;;;;;;0.59;89.73;102852.96;105014;1291;74557;-70
2023/01/23 00:52:30;;;;;;;;;;;;;;;0.60;89.74;102857.45;105083;1290;68311;-70
2023/01/23 00:55:16;;;;;;;;;;;;;;;0.59;89.58;102855.82;105045;1291;74417;-70
2023/01/23 00:58:02;;;;;;;;;;;;;;;0.57;89.57;102846.86;104969;1291;62992;-70
2023/01/23 01:00:48;;;;;;;;;;;;;;;0.56;89.56;102848.84;104881;1288;61826;-70
2023/01/23 01:03:35;;;;;;;;;;;;;;;0.57;89.59;102854.16;105012;1290;74355;-70
2023/01/23 01:06:21;;;;;;;;;;;;;;;0.57;89.71;102855.20;105019;1289;68066;-70
2023/01/23 01:09:07;;;;;;;;;;;;;;;0.57;89.65;102858.06;105089;1290;71330;-70
2023/01/23 01:11:53;;;;;;;;;;;;;;;0.56;89.61;102856.49;105004;1290;59648;-70
2023/01/23 01:14:39;;;;;;;;;;;;;;;0.55;89.55;102855.89;104947;1294;61296;-70
2023/01/23 01:17:25;;;;;;;;;;;;;;;0.54;89.54;102856.70;105006;1290;73409;-70
2023/01/23 01:20:12;;;;;;;;;;;;;;;0.54;89.58;102855.64;104956;1289;68510;-70
2023/01/23 01:22:59;;;;;;;;;;;;;;;0.52;89.55;102852.36;104937;1291;75491;-70
2023/01/23 01:25:45;;;;;;;;;;;;;;;0.52;89.60;102848.27;104964;1291;59476;-70
2023/01/23 01:28:32;;;;;;;;;;;;;;;0.51;89.57;102849.27;105003;1291;60136;-70
2023/01/23 01:31:18;;;;;;;;;;;;;;;0.50;89.52;102852.05;104996;1290;73147;-70
2023/01/23 01:34:04;;;;;;;;;;;;;;;0.49;89.53;102859.80;105013;1291;67192;-70
2023/01/23 01:36:50;;;;;;;;;;;;;;;0.48;89.49;102864.66;105018;1289;72263;-70
2023/01/23 01:39:36;;;;;;;;;;;;;;;0.46;89.52;102863.20;105007;1290;61188;-70
2023/01/23 01:42:22;;;;;;;;;;;;;;;0.46;89.51;102863.86;105069;1291;61154;-70
2023/01/23 01:45:27;;;;;;;;;;;;;;;0.47;89.58;102863.41;105000;1290;73189;-70
2023/01/23 01:48:14;;;;;;;;;;;;;;;0.46;89.54;102862.89;105089;1291;67439;-70
2023/01/23 01:51:02;;;;;;;;;;;;;;;0.47;89.54;102859.33;104942;1292;72572;-70
2023/01/23 01:53:53;;;;;;;;;;;;;;;0.47;89.61;102859.53;105017;1293;59851;-70
2023/01/23 01:56:48;;;;;;;;;;;;;;;0.48;89.57;102865.70;105078;1290;59257;-70
2023/01/23 01:59:39;;;;;;;;;;;;;;;0.49;89.64;102866.46;105038;1290;75009;-70
2023/01/23 02:02:31;;;;;;;;;;;;;;;0.49;89.56;102870.02;104994;1291;67233;-70
2023/01/23 02:05:19;;;;;;;;;;;;;;;0.49;89.55;102869.50;104957;1291;71182;-70
2023/01/23 02:08:13;;;;;;;;;;;;;;;0.49;89.53;102875.47;105066;1292;61101;-70
2023/01/23 02:11:02;;;;;;;;;;;;;;;0.50;89.63;102874.13;104993;1291;63328;-70
2023/01/23 02:13:48;;;;;;;;;;;;;;;0.51;89.58;102879.62;105006;1292;74695;-70
2023/01/23 02:16:39;;;;;;;;;;;;;;;0.52;89.61;102880.20;105065;1290;67525;-71
2023/01/23 02:19:44;;;;;;;;;;;;;;;0.52;89.56;102880.35;105049;1289;72608;-70
2023/01/23 02:22:49;;;;;;;;;;;;;;;0.53;89.60;102877.48;105075;1291;59278;-70
2023/01/23 02:25:41;;;;;;;;;;;;;;;0.52;89.58;102876.11;104982;1291;59195;-70
2023/01/23 02:28:37;;;;;;;;;;;;;;;0.51;89.54;102874.40;105006;1291;73219;-70
2023/01/23 02:31:23;;;;;;;;;;;;;;;0.51;89.55;102875.36;105069;1290;68589;-70
2023/01/23 02:34:09;;;;;;;;;;;;;;;0.50;89.49;102877.85;105008;1291;75461;-70
2023/01/23 02:36:56;;;;;;;;;;;;;;;0.50;89.57;102877.89;104854;1290;60122;-70
2023/01/23 02:39:42;;;;;;;;;;;;;;;0.49;89.52;102879.34;105049;1290;60227;-70
2023/01/23 02:42:29;;;;;;;;;;;;;;;0.48;89.48;102882.01;104885;1291;76197;-70
2023/01/23 02:45:15;;;;;;;;;;;;;;;0.47;89.47;102882.58;105019;1288;70029;-70
2023/01/23 02:48:04;;;;;;;;;;;;;;;0.46;89.47;102883.73;104740;1290;351398;-70
2023/01/23 02:50:50;;;;;;;;;;;;;;;0.47;89.47;102878.67;105012;1292;59264;-70
2023/01/23 02:53:37;;;;;;;;;;;;;;;0.47;89.48;102879.56;104994;1293;61487;-70
2023/01/23 02:56:23;;;;;;;;;;;;;;;0.48;89.55;102878.76;105008;1292;73183;-70
2023/01/23 03:02:14;;;;;;;;;;;;;;;0.47;89.44;102880.24;104996;1291;72563;-70
2023/01/23 03:05:00;;;;;;;;;;;;;;;0.45;89.38;102879.09;104885;1290;61280;-70
2023/01/23 03:07:46;;;;;;;;;;;;;;;0.45;89.48;102877.92;104983;1292;61259;-70
2023/01/23 03:10:32;;;;;;;;;;;;;;;0.45;89.51;102875.70;105025;1291;73983;-70
2023/01/23 03:13:18;;;;;;;;;;;;;;;0.44;89.44;102874.09;104892;1290;67237;-70
2023/01/23 03:16:05;;;;;;;;;;;;;;;0.43;89.44;102871.33;104999;1289;71243;-70
2023/01/23 03:18:51;;;;;;;;;;;;;;;0.41;89.40;102873.41;105017;1291;61511;-70
2023/01/23 03:21:39;;;;;;;;;;;;;;;0.40;89.49;102875.73;104984;1293;61183;-70
2023/01/23 03:24:25;;;;;;;;;;;;;;;0.40;89.53;102877.09;105015;1289;73260;-70
2023/01/23 03:27:11;;;;;;;;;;;;;;;0.41;89.46;102880.70;104913;1291;69273;-70
2023/01/23 03:30:14;;;;;;;;;;;;;;;0.41;89.48;102886.27;104876;1290;73155;-70
2023/01/23 03:33:01;;;;;;;;;;;;;;;0.39;89.41;102883.27;104986;1291;60787;-70
2023/01/23 03:35:47;;;;;;;;;;;;;;;0.37;89.35;102881.48;105011;1290;61269;-70
2023/01/23 03:38:33;;;;;;;;;;;;;;;0.36;89.39;102883.45;104892;1289;73358;-70
2023/01/23 03:41:25;;;;;;;;;;;;;;;0.36;89.40;102886.67;104976;1290;67274;-70
2023/01/23 03:44:11;;;;;;;;;;;;;;;0.34;89.35;102885.55;104988;1289;71414;-70
2023/01/23 03:46:57;;;;;;;;;;;;;;;0.34;89.37;102889.95;105003;1291;61228;-70
2023/01/23 03:49:43;;;;;;;;;;;;;;;0.32;89.30;102893.52;104978;1291;60022;-70
2023/01/23 03:52:30;;;;;;;;;;;;;;;0.31;89.41;102900.95;104982;1293;73117;-70
2023/01/23 03:55:16;;;;;;;;;;;;;;;0.30;89.32;102902.95;105058;1290;69964;-70
2023/01/23 03:58:02;;;;;;;;;;;;;;;0.29;89.33;102906.08;104974;1289;74284;-70
2023/01/23 04:00:48;;;;;;;;;;;;;;;0.28;89.32;102911.45;104988;1290;61174;-70
2023/01/23 04:03:34;;;;;;;;;;;;;;;0.26;89.32;102913.23;104928;1289;59482;-70
2023/01/23 04:06:20;;;;;;;;;;;;;;;0.27;89.32;102919.70;104946;1291;75121;-70
2023/01/23 04:09:06;;;;;;;;;;;;;;;0.26;89.22;102921.52;105048;1290;67858;-70
2023/01/23 04:11:53;;;;;;;;;;;;;;;0.27;89.38;102918.83;104948;1292;71661;-70
2023/01/23 04:14:39;;;;;;;;;;;;;;;0.28;89.38;102922.13;105012;1290;61235;-70
2023/01/23 04:17:26;;;;;;;;;;;;;;;0.28;89.39;102920.45;105018;1289;59248;-70
2023/01/23 04:20:12;;;;;;;;;;;;;;;0.29;89.31;102926.94;104995;1293;75993;-70
2023/01/23 04:22:58;;;;;;;;;;;;;;;0.28;89.27;102938.22;104852;1291;67266;-70
2023/01/23 04:25:44;;;;;;;;;;;;;;;0.26;89.28;102942.02;104946;1292;72323;-70
2023/01/23 04:28:30;;;;;;;;;;;;;;;0.26;89.27;102946.42;105003;1289;59251;-70
2023/01/23 04:31:16;;;;;;;;;;;;;;;0.26;89.33;102949.30;104959;1291;61031;-70
2023/01/23 04:34:02;;;;;;;;;;;;;;;0.28;89.34;102952.65;105018;1293;73682;-70
2023/01/23 04:36:49;;;;;;;;;;;;;;;0.30;89.43;102956.19;104946;1290;68911;-70
2023/01/23 04:39:35;;;;;;;;;;;;;;;0.30;89.36;102957.23;104880;1290;71871;-70
2023/01/23 04:42:21;;;;;;;;;;;;;;;0.30;89.35;102959.28;104884;1292;59584;-70
2023/01/23 04:45:08;;;;;;;;;;;;;;;0.30;89.36;102957.58;105017;1290;61732;-70
2023/01/23 04:47:54;;;;;;;;;;;;;;;0.31;89.30;102958.33;105053;1289;73791;-70
2023/01/23 04:50:40;;;;;;;;;;;;;;;0.32;89.31;102958.38;105003;1291;67193;-70
2023/01/23 04:53:26;;;;;;;;;;;;;;;0.33;89.36;102959.11;104957;1291;72133;-70
2023/01/23 04:56:12;;;;;;;;;;;;;;;0.33;89.33;102957.38;104946;1289;61121;-70
2023/01/23 04:58:58;;;;;;;;;;;;;;;0.33;89.30;102958.45;104982;1291;61261;-70
2023/01/23 05:01:44;;;;;;;;;;;;;;;0.33;89.38;102960.83;104974;1289;73187;-70
2023/01/23 05:04:30;;;;;;;;;;;;;;;0.35;89.37;102961.75;104966;1293;67423;-70
2023/01/23 05:07:16;;;;;;;;;;;;;;;0.35;89.41;102965.66;104957;1291;71217;-70
2023/01/23 05:10:03;;;;;;;;;;;;;;;0.34;89.32;102968.80;104858;1291;61204;-70
2023/01/23 05:12:49;;;;;;;;;;;;;;;0.33;89.29;102969.59;104968;1291;59657;-70
2023/01/23 05:15:35;;;;;;;;;;;;;;;0.33;89.31;102975.39;105067;1293;73172;-70
2023/01/23 05:18:21;;;;;;;;;;;;;;;0.31;89.29;102974.58;104914;1289;67177;-70
2023/01/23 05:21:07;;;;;;;;;;;;;;;0.30;89.21;102976.23;104875;1291;72511;-70
2023/01/23 05:23:53;;;;;;;;;;;;;;;0.30;89.17;102973.16;104994;1289;61299;-70
2023/01/23 05:26:39;;;;;;;;;;;;;;;0.28;89.23;102970.63;104937;1289;61134;-70
2023/01/23 05:29:25;;;;;;;;;;;;;;;0.26;89.18;102972.53;105000;1290;73059;-70
2023/01/23 05:32:11;;;;;;;;;;;;;;;0.23;89.09;102975.42;105008;1291;67975;-70
2023/01/23 05:34:57;;;;;;;;;;;;;;;0.21;89.18;102977.34;104932;1289;71367;-70
2023/01/23 05:37:47;;;;;;;;;;;;;;;0.21;89.19;102981.73;104999;1290;60205;-70
2023/01/23 05:40:33;;;;;;;;;;;;;;;0.19;89.17;102985.35;105041;1291;59395;-70
2023/01/23 05:43:19;;;;;;;;;;;;;;;0.19;89.11;102990.05;104963;1294;73523;-70
2023/01/23 05:46:05;;;;;;;;;;;;;;;0.18;89.18;102993.42;105034;1291;67253;-70
2023/01/23 05:48:51;;;;;;;;;;;;;;;0.19;89.20;102996.37;105043;1291;71184;-70
2023/01/23 05:51:37;;;;;;;;;;;;;;;0.21;89.27;102996.66;105000;1291;61047;-70
2023/01/23 05:54:23;;;;;;;;;;;;;;;0.23;89.25;102998.62;104978;1290;59672;-70
2023/01/23 05:57:09;;;;;;;;;;;;;;;0.22;89.19;102999.93;105047;1294;74596;-70
2023/01/23 05:59:55;;;;;;;;;;;;;;;0.22;89.15;103000.79;105003;1291;68543;-70
2023/01/23 06:02:42;;;;;;;;;;;;;;;0.20;89.15;103000.16;104745;1290;385757;-70
2023/01/23 06:05:28;;;;;;;;;;;;;;;0.21;89.18;103002.08;105043;1293;61139;-70
2023/01/23 06:08:14;;;;;;;;;;;;;;;0.20;89.15;103006.92;105020;1289;61254;-70
2023/01/23 06:11:01;;;;;;;;;;;;;;;0.21;89.15;103014.45;104989;1291;73231;-70
2023/01/23 06:13:47;;;;;;;;;;;;;;;0.21;89.23;103019.20;104979;1295;70096;-70
2023/01/23 06:16:33;;;;;;;;;;;;;;;0.20;89.16;103018.79;105013;1291;71302;-70
2023/01/23 06:19:19;;;;;;;;;;;;;;;0.21;89.22;103022.27;105034;1288;61131;-70
2023/01/23 06:22:05;;;;;;;;;;;;;;;0.23;89.18;103020.18;105060;1293;59503;-70
2023/01/23 06:24:51;;;;;;;;;;;;;;;0.24;89.18;103025.65;104914;1294;73955;-70
2023/01/23 06:27:38;;;;;;;;;;;;;;;0.23;89.15;103033.57;104908;1290;68200;-70
2023/01/23 06:30:24;;;;;;;;;;;;;;;0.18;89.07;103038.67;104962;1294;73306;-70
2023/01/23 06:33:10;;;;;;;;;;;;;;;0.18;89.15;103044.58;104985;1292;61372;-70
2023/01/23 06:36:00;;;;;;;;;;;;;;;0.20;89.22;103050.02;104992;1289;61191;-70
2023/01/23 06:38:46;;;;;;;;;;;;;;;0.22;89.25;103059.80;105051;1290;74102;-70
2023/01/23 06:41:32;;;;;;;;;;;;;;;0.22;89.20;103062.20;104974;1290;68056;-70
2023/01/23 06:44:18;;;;;;;;;;;;;;;0.24;89.24;103068.27;104855;1289;74007;-70
2023/01/23 06:47:04;;;;;;;;;;;;;;;0.24;89.19;103074.40;104994;1291;62677;-70
2023/01/23 06:49:51;;;;;;;;;;;;;;;0.25;89.14;103080.68;104892;1289;59508;-70
2023/01/23 06:52:37;;;;;;;;;;;;;;;0.24;89.18;103076.77;104975;1290;73304;-70
2023/01/23 06:55:23;;;;;;;;;;;;;;;0.24;89.15;103081.02;104999;1294;67644;-70
2023/01/23 06:58:09;;;;;;;;;;;;;;;0.24;89.14;103083.70;105009;1290;71196;-70
2023/01/23 07:00:55;;;;;;;;;;;;;;;0.23;89.15;103084.67;104932;1294;61275;-70
2023/01/23 07:03:43;;;;;;;;;;;;;;;0.22;89.13;103084.90;105021;1289;61178;-70
2023/01/23 07:06:30;;;;;;;;;;;;;;;0.23;89.20;103091.73;105025;1294;73478;-70
2023/01/23 07:09:16;;;;;;;;;;;;;;;0.24;89.22;103095.25;105046;1294;67319;-70
2023/01/23 07:12:02;;;;;;;;;;;;;;;0.24;89.19;103095.73;105058;1292;71111;-70
2023/01/23 07:14:48;;;;;;;;;;;;;;;0.25;89.20;103096.50;105100;1292;61205;-70
2023/01/23 07:17:34;;;;;;;;;;;;;;;0.27;89.21;103098.11;105142;1289;59145;-70
2023/01/23 07:20:20;;;;;;;;;;;;;;;0.26;89.11;103097.91;105147;1293;74004;-73
2023/01/23 07:23:08;;;;;;;;;;;;;;;0.27;89.19;103096.46;104952;1292;67299;-73
2023/01/23 07:26:02;;;;;;;;;;;;;;;0.28;89.15;103093.09;105027;1294;73992;-73
2023/01/23 07:28:48;;;;;;;;;;;;;;;0.29;89.14;103097.42;104948;1291;61225;-73
2023/01/23 07:31:35;;;;;;;;;;;;;;;0.30;89.19;103103.41;105081;1289;59525;-73
2023/01/23 07:34:21;;;;;;;;;;;;;;;0.31;89.17;103103.36;104909;1297;73262;-73
2023/01/23 07:37:07;;;;;;;;;;;;;;;0.33;89.13;103102.61;104955;1294;67337;-73
2023/01/23 07:39:53;;;;;;;;;;;;;;;0.32;89.06;103106.11;104989;1295;73154;-73
2023/01/23 07:42:40;;;;;;;;;;;;;;;0.32;89.15;103106.13;105103;1290;61294;-73
2023/01/23 07:45:26;;;;;;;;;;;;;;;0.34;89.17;103108.26;104995;1289;61273;-73
2023/01/23 07:48:12;;;;;;;;;;;;;;;0.36;89.18;103109.06;105099;1288;74535;-73
2023/01/23 07:51:00;;;;;;;;;;;;;;;0.37;89.19;103110.02;104943;1289;70072;-73
2023/01/23 07:53:46;;;;;;;;;;;;;;;0.41;89.27;103103.47;105089;1289;72172;-73
2023/01/23 07:56:33;;;;;;;;;;;;;;;0.43;89.23;103101.05;105094;1289;61331;-73
2023/01/23 07:59:19;;;;;;;;;;;;;;;0.44;89.20;103103.66;104901;1296;61048;-73
2023/01/23 08:02:05;;;;;;;;;;;;;;;0.44;89.18;103106.90;105045;1289;72346;-73
2023/01/23 08:04:51;;;;;;;;;;;;;;;0.45;89.17;103109.17;104714;1293;173693;-73
2023/01/23 08:07:37;;;;;;;;;;;;;;;0.45;89.11;103107.79;104908;1290;70980;-73
2023/01/23 08:10:23;;;;;;;;;;;;;;;0.47;89.22;103105.71;104969;1290;61138;-70
2023/01/23 08:13:09;;;;;;;;;;;;;;;0.49;89.17;103110.95;105037;1293;62110;-70
2023/01/23 08:15:56;;;;;;;;;;;;;;;0.50;89.16;103114.23;105001;1289;74220;-70
2023/01/23 08:18:43;;;;;;;;;;;;;;;0.50;89.17;103113.74;105079;1292;68637;-70
2023/01/23 08:21:29;;;;;;;;;;;;;;;0.52;89.20;103115.38;104878;1290;72162;-70
2023/01/23 08:24:15;;;;;;;;;;;;;;;0.55;89.25;103112.84;104995;1289;59928;-70
2023/01/23 08:27:01;;;;;;;;;;;;;;;0.58;89.23;103113.35;105063;1292;61622;-70
2023/01/23 08:29:47;;;;;;;;;;;;;;;0.56;89.09;103108.86;104915;1290;73461;-71
2023/01/23 08:32:34;;;;;;;;;;;;;;;0.56;89.15;103109.20;105078;1291;67699;-71
2023/01/23 08:35:20;;;;;;;;;;;;;;;0.59;89.16;103110.04;105008;1291;71551;-71
2023/01/23 08:38:09;;;;;;;;;;;;;;;0.61;89.15;103115.08;104973;1292;60254;-70
2023/01/23 08:40:57;;;;;;;;;;;;;;;0.60;89.15;103115.56;105001;1289;61170;-71
2023/01/23 08:43:43;;;;;;;;;;;;;;;0.62;89.17;103112.78;105006;1290;73346;-71
2023/01/23 08:46:29;;;;;;;;;;;;;;;0.63;89.11;103119.84;105015;1292;69243;-71
2023/01/23 08:49:18;;;;;;;;;;;;;;;0.65;89.17;103120.33;104988;1289;72166;-71
2023/01/23 08:52:05;;;;;;;;;;;;;;;0.69;89.22;103116.80;104968;1290;59079;-71
2023/01/23 08:54:51;;;;;;;;;;;;;;;0.72;89.16;103116.46;104998;1289;59617;-71
2023/01/23 08:57:37;;;;;;;;;;;;;;;0.73;89.14;103120.77;104979;1291;73240;-71
2023/01/23 09:00:23;;;;;;;;;;;;;;;0.74;89.16;103125.45;105015;1293;69175;-71
2023/01/23 09:03:09;;;;;;;;;;;;;;;0.75;89.14;103126.02;105030;1291;72120;-71
2023/01/23 09:05:59;;;;;;;;;;;;;;;0.75;89.10;103128.05;104993;1290;61287;-71
2023/01/23 09:08:45;;;;;;;;;;;;;;;0.75;89.00;103131.41;104901;1291;60814;-71
2023/01/23 09:11:31;;;;;;;;;;;;;;;0.74;89.12;103131.73;105059;1294;73349;-71
2023/01/23 09:14:17;;;;;;;;;;;;;;;0.77;89.05;103133.26;105040;1289;69949;-71
2023/01/23 09:17:04;;;;;;;;;;;;;;;0.78;89.14;103132.34;104938;1295;73928;-71
2023/01/23 09:19:50;;;;;;;;;;;;;;;0.80;89.12;103135.16;105008;1294;60136;-71
2023/01/23 09:22:36;;;;;;;;;;;;;;;0.81;89.13;103137.63;104598;1290;59700;-71
2023/01/23 09:25:22;;;;;;;;;;;;;;;0.81;89.09;103139.51;105045;1291;73924;-71
2023/01/23 09:28:08;;;;;;;;;;;;;;;0.83;89.12;103141.31;104907;1291;67672;-71
2023/01/23 09:30:54;;;;;;;;;;;;;;;0.84;89.04;103143.90;105040;1294;71419;-71
2023/01/23 09:33:41;;;;;;;;;;;;;;;0.85;89.17;103141.80;105062;1291;62617;-71
2023/01/23 09:36:27;;;;;;;;;;;;;;;0.87;89.14;103141.27;105009;1290;59618;-71
2023/01/23 09:39:13;;;;;;;;;;;;;;;0.90;89.10;103146.88;104969;1289;73757;-70
2023/01/23 09:42:07;;;;;;;;;;;;;;;0.91;89.17;103147.11;105030;1289;72794;-70
2023/01/23 09:44:56;;;;;;;;;;;;;;;0.91;89.08;103146.59;105071;1289;71188;-70
2023/01/23 09:47:45;;;;;;;;;;;;;;;0.92;89.10;103144.96;105056;1290;59900;-70
2023/01/23 09:50:35;;;;;;;;;;;;;;;0.96;89.20;103143.33;105093;1290;60507;-70
2023/01/23 09:53:24;;;;;;;;;;;;;;;0.99;89.22;103143.88;105027;1290;73281;-70
2023/01/23 09:56:10;;;;;;;;;;;;;;;1.01;89.18;103143.46;104950;1291;66886;-70
2023/01/23 09:59:10;;;;;;;;;;;;;;;1.03;89.16;103146.51;105032;1290;74088;-70
2023/01/23 10:01:56;;;;;;;;;;;;;;;1.06;89.15;103149.86;105010;1288;60229;-70
2023/01/23 10:04:42;;;;;;;;;;;;;;;1.08;89.11;103153.58;105048;1291;60460;-70
2023/01/23 10:07:28;;;;;;;;;;;;;;;1.09;89.16;103157.18;105113;1294;74529;-70
2023/01/23 10:10:23;;;;;;;;;;;;;;;1.08;89.04;103161.07;105000;1291;67920;-70
2023/01/23 10:13:22;;;;;;;;;;;;;;;1.09;89.06;103160.45;105081;1290;73271;-70
2023/01/23 10:16:27;;;;;;;;;;;;;;;1.08;89.01;103162.09;105064;1291;61185;-70
2023/01/23 10:19:23;;;;;;;;;;;;;;;1.09;89.04;103161.77;105032;1291;61586;-70
2023/01/23 10:22:21;;;;;;;;;;;;;;;1.08;89.07;103167.00;105028;1290;73289;-70
2023/01/23 10:25:21;;;;;;;;;;;;;;;1.11;89.11;103166.52;105027;1289;68466;-70
2023/01/23 10:28:22;;;;;;;;;;;;;;;1.14;89.17;103166.52;104929;1290;73000;-70
2023/01/23 10:31:21;;;;;;;;;;;;;;;1.15;89.13;103160.47;105078;1293;61027;-70
2023/01/23 10:34:07;;;;;;;;;;;;;;;1.17;89.14;103162.80;105000;1291;61119;-72
2023/01/23 10:36:56;;;;;;;;;;;;;;;1.19;89.14;103168.55;105001;1289;73394;-72
2023/01/23 10:40:01;;;;;;;;;;;;;;;1.20;89.08;103167.79;105031;1289;68573;-72
2023/01/23 10:42:47;;;;;;;;;;;;;;;1.23;89.14;103165.89;104952;1289;72535;-72
2023/01/23 10:45:33;;;;;;;;;;;;;;;1.26;89.21;103166.80;104925;1290;62669;-72
2023/01/23 10:48:26;;;;;;;;;;;;;;;1.29;89.19;103170.05;104878;1289;61115;-72
2023/01/23 10:51:33;;;;;;;;;;;;;;;1.31;89.17;103168.46;105111;1289;73246;-72
2023/01/23 10:54:21;;;;;;;;;;;;;;;1.32;89.10;103167.00;105008;1291;67116;-72
2023/01/23 10:57:07;;;;;;;;;;;;;;;1.35;89.18;103169.35;105050;1290;72466;-72
2023/01/23 10:59:55;;;;;;;;;;;;;;;1.35;89.11;103169.90;104961;1290;59386;-72
2023/01/23 11:02:42;;;;;;;;;;;;;;;1.33;89.05;103167.43;104998;1288;61106;-72
2023/01/23 11:05:34;;;;;;;;;;;;;;;1.33;89.05;103163.34;105024;1293;77411;-72
2023/01/23 11:08:37;;;;;;;;;;;;;;;1.34;89.07;103160.33;105040;1291;67248;-70
2023/01/23 11:11:25;;;;;;;;;;;;;;;1.35;89.06;103161.90;105026;1290;71667;-74
2023/01/23 11:14:15;;;;;;;;;;;;;;;1.32;88.96;103159.04;105902;1289;59284;-70
2023/01/23 11:17:03;;;;;;;;;;;;;;;1.36;89.10;103156.51;106000;1290;58928;-70
2023/01/23 11:19:52;;;;;;;;;;;;;;;1.38;89.11;103154.64;105281;1291;74081;-70
2023/01/23 11:22:40;;;;;;;;;;;;;;;1.42;89.09;103148.73;104851;1291;67369;-70
2023/01/23 11:25:31;;;;;;;;;;;;;;;1.44;89.10;103148.71;104895;1290;71267;-70
2023/01/23 11:28:29;;;;;;;;;;;;;;;1.45;89.00;103150.10;104977;1289;59723;-70
2023/01/23 11:31:18;;;;;;;;;;;;;;;1.43;89.01;103151.89;105031;1293;61695;-70
2023/01/23 11:34:11;;;;;;;;;;;;;;;1.42;88.97;103149.90;104852;1293;74393;-72
2023/01/23 11:37:11;;;;;;;;;;;;;;;1.40;88.98;103154.90;104907;1290;67194;-70
2023/01/23 11:40:10;;;;;;;;;;;;;;;1.38;88.93;103156.48;105045;1289;71280;-70
2023/01/23 11:42:57;;;;;;;;;;;;;;;1.38;88.95;103160.55;105007;1289;61716;-70
2023/01/23 11:45:45;;;;;;;;;;;;;;;1.36;88.95;103158.26;104979;1290;59860;-72
2023/01/23 11:48:54;;;;;;;;;;;;;;;1.36;88.98;103154.83;104999;1291;79930;-71
2023/01/23 11:52:06;;;;;;;;;;;;;;;1.37;88.97;103155.04;104908;1291;68641;-71
2023/01/23 11:55:07;;;;;;;;;;;;;;;1.37;88.98;103158.60;104903;1290;71372;-71
2023/01/23 11:58:16;;;;;;;;;;;;;;;1.35;88.91;103151.53;105023;1289;59355;-71
2023/01/23 12:01:20;;;;;;;;;;;;;;;1.32;88.97;103146.27;105019;1293;61435;-70
2023/01/23 12:04:27;;;;;;;;;;;;;;;1.31;88.97;103148.58;105014;1290;75164;-71
2023/01/23 12:07:20;;;;;;;;;;;;;;;1.28;88.90;103143.95;105066;1290;68236;-71
2023/01/23 12:10:24;;;;;;;;;;;;;;;1.27;88.95;103140.66;105016;1291;72072;-71
2023/01/23 12:13:33;;;;;;;;;;;;;;;1.26;88.95;103134.20;104942;1290;60393;-71
2023/01/23 12:16:25;;;;;;;;;;;;;;;1.28;88.99;103132.58;104848;1289;61251;-71
2023/01/23 12:19:17;;;;;;;;;;;;;;;1.30;89.04;103131.54;105049;1290;74510;-71
2023/01/23 12:22:04;;;;;;;;;;;;;;;1.30;88.87;103130.03;105059;1291;67612;-71
2023/01/23 12:25:11;;;;;;;;;;;;;;;1.28;88.88;103126.31;104957;1290;73930;-71
2023/01/23 12:28:09;;;;;;;;;;;;;;;1.27;88.91;103136.08;105031;1290;61283;-71
2023/01/23 12:30:55;;;;;;;;;;;;;;;1.27;88.91;103141.04;105064;1289;61111;-71
2023/01/23 12:33:41;;;;;;;;;;;;;;;1.26;88.88;103145.72;105031;1290;72176;-71
2023/01/23 12:36:27;;;;;;;;;;;;;;;1.26;88.93;103148.64;104921;1290;67258;-71
2023/01/23 12:39:13;;;;;;;;;;;;;;;1.26;88.93;103146.23;104994;1288;71356;-71
2023/01/23 12:42:02;;;;;;;;;;;;;;;1.26;88.92;103147.77;105081;1293;59746;-71
2023/01/23 12:44:51;;;;;;;;;;;;;;;1.25;88.90;103143.77;105890;1290;60293;-71
2023/01/23 12:47:48;;;;;;;;;;;;;;;1.22;88.77;103145.31;105986;1290;74365;-71
2023/01/23 12:50:37;;;;;;;;;;;;;;;1.21;88.85;103146.45;105960;1289;67590;-71
2023/01/23 12:53:23;;;;;;;;;;;;;;;1.22;88.88;103145.61;105937;1291;71410;-72
2023/01/23 12:56:13;;;;;;;;;;;;;;;1.23;88.94;103144.85;105978;1291;59021;-71
2023/01/23 12:59:04;;;;;;;;;;;;;;;1.23;88.86;103143.33;105934;1290;59972;-71
2023/01/23 13:02:02;;;;;;;;;;;;;;;1.24;88.93;103138.15;106065;1289;74354;-71
2023/01/23 13:05:09;;;;;;;;;;;;;;;1.25;88.89;103136.48;105993;1289;68295;-71
2023/01/23 13:08:02;;;;;;;;;;;;;;;1.23;88.86;103135.48;105901;1290;72534;-71
2023/01/23 13:14:16;;;;;;;;;;;;;;;1.21;88.90;103131.99;105980;1293;59951;-71
2023/01/23 13:17:02;;;;;;;;;;;;;;;1.23;88.96;103128.34;105912;1289;73379;-71
2023/01/23 13:22:53;;;;;;;;;;;;;;;1.24;88.97;103131.48;106012;1289;71453;-70
2023/01/23 13:25:39;;;;;;;;;;;;;;;1.27;89.00;103133.70;105773;1289;59508;-70
2023/01/23 13:28:29;;;;;;;;;;;;;;;1.30;89.08;103131.70;105011;1289;61036;-70
2023/01/23 13:31:27;;;;;;;;;;;;;;;1.32;89.07;103130.62;104957;1289;72672;-70
2023/01/23 13:34:16;;;;;;;;;;;;;;;1.33;89.09;103128.48;105030;1291;66778;-70
2023/01/23 13:37:25;;;;;;;;;;;;;;;1.33;89.04;103127.83;105067;1289;73056;-70
2023/01/23 13:40:13;;;;;;;;;;;;;;;1.33;89.10;103126.11;105070;1289;61222;-70
2023/01/23 13:43:19;;;;;;;;;;;;;;;1.34;89.12;103126.85;104713;1290;61165;-70
2023/01/23 13:46:08;;;;;;;;;;;;;;;1.33;89.07;103123.59;105065;1290;73897;-70
2023/01/23 13:58:34;;;;;;;;;;;;;;;1.28;88.92;103123.40;105076;1293;60573;-72
2023/01/23 14:07:52;;;;;;;;;;;;;;;1.23;89.09;103121.77;105008;1291;73948;-72
2023/01/23 14:10:44;;;;;;;;;;;;;;;1.23;89.11;103120.90;105063;1290;60038;-73
2023/01/23 14:13:45;;;;;;;;;;;;;;;1.24;89.13;103121.48;105070;1289;61182;-73
2023/01/23 14:16:31;;;;;;;;;;;;;;;1.23;89.08;103125.30;105015;1290;74746;-73
2023/01/23 14:19:22;;;;;;;;;;;;;;;1.20;88.97;103122.60;105017;1290;69641;-73
2023/01/23 14:22:09;;;;;;;;;;;;;;;1.18;89.01;103126.70;104913;1294;215139;-73
2023/01/23 14:24:55;;;;;;;;;;;;;;;1.15;88.97;103125.33;104926;1295;61302;-73
2023/01/23 14:27:41;;;;;;;;;;;;;;;1.12;88.87;103124.80;105033;1294;61282;-72
2023/01/23 14:30:30;;;;;;;;;;;;;;;1.10;88.93;103127.36;105059;1290;76586;-72
2023/01/23 14:33:16;;;;;;;;;;;;;;;1.08;88.93;103125.40;104810;1289;71519;-72
2023/01/23 14:36:02;;;;;;;;;;;;;;;1.08;89.03;103130.64;104927;1290;73984;-72
2023/01/23 14:38:49;;;;;;;;;;;;;;;1.08;89.01;103133.16;105021;1290;61144;-72
2023/01/23 14:41:38;;;;;;;;;;;;;;;1.09;89.08;103134.26;104942;1289;60507;-73
2023/01/23 14:44:45;;;;;;;;;;;;;;;1.08;89.09;103134.58;105058;1291;74104;-73
2023/01/23 14:47:32;;;;;;;;;;;;;;;1.06;88.99;103139.16;105031;1290;67265;-73
2023/01/23 14:50:20;;;;;;;;;;;;;;;1.04;88.99;103142.29;104667;1290;73584;-73
2023/01/23 14:53:11;;;;;;;;;;;;;;;1.04;89.04;103144.17;104829;1290;59026;-73